Time;durP1;ratioP1;P1;durP2;ratioP2;P2;SDS_P1;SDS_P2;PMS_P1;PMS_P2;Temp;Humidity;BMP_temperature;BMP_pressure;BME280_temperature;BME280_humidity;BME280_pressure;Samples;Min_cycle;Max_cycle;Signal;HPM_P1;HPM_P2
2023/11/04 00:04:38;;;;;;;0.30;0.30;;;;;;;12.69;100.00;98542.44;6130942;23;20134;31
2023/11/04 00:07:58;;;;;;;0.30;0.30;;;;;;;12.74;100.00;98542.00;4957145;28;20030;-84
2023/11/04 00:15:04;;;;;;;0.20;0.20;;;;;;;12.76;100.00;98545.94;4883002;29;20048;-83
2023/11/04 01:05:13;;;;;;;0.30;0.30;;;;;;;12.43;100.00;98539.16;4977412;28;20061;-84
2023/11/04 01:07:46;;;;;;;0.20;0.20;;;;;;;11.87;100.00;98524.53;4976406;29;20126;-84
2023/11/04 01:10:16;;;;;;;0.20;0.20;;;;;;;11.52;100.00;98489.41;4974612;29;20043;-84
2023/11/04 01:12:44;;;;;;;0.30;0.30;;;;;;;11.29;100.00;98470.47;4974388;29;20024;-84
2023/11/04 01:15:14;;;;;;;0.30;0.30;;;;;;;11.73;100.00;98530.22;4975460;28;20023;-84
2023/11/04 01:17:39;;;;;;;0.20;0.20;;;;;;;11.35;100.00;98482.78;4960216;29;20022;-84
2023/11/04 01:20:10;;;;;;;0.30;0.30;;;;;;;11.44;100.00;98463.59;4976866;29;20032;-84
2023/11/04 01:22:42;;;;;;;0.30;0.30;;;;;;;11.31;100.00;98458.94;4975493;29;20051;-84
2023/11/04 01:25:22;;;;;;;0.20;0.20;;;;;;;11.46;100.00;98516.91;4957397;29;20047;-84
2023/11/04 01:27:51;;;;;;;0.30;0.30;;;;;;;10.98;100.00;98447.25;4974861;28;20027;-84
2023/11/04 01:30:21;;;;;;;0.20;0.20;;;;;;;11.55;100.00;98536.72;4959206;29;20071;-84
2023/11/04 01:32:52;;;;;;;0.30;0.30;;;;;;;11.73;100.00;98539.38;4973769;29;20140;-84
2023/11/04 01:35:20;;;;;;;0.30;0.30;;;;;;;11.36;100.00;98481.56;4957663;29;20107;-84
2023/11/04 01:40:26;;;;;;;0.20;0.20;;;;;;;11.62;100.00;98526.75;5769173;23;19917;-84
2023/11/04 01:42:56;;;;;;;0.30;0.30;;;;;;;11.19;100.00;98485.28;5018746;28;20018;-84
2023/11/04 01:45:26;;;;;;;0.20;0.20;;;;;;;11.44;100.00;98519.28;5037739;28;20025;-84
2023/11/04 01:47:56;;;;;;;0.30;0.30;;;;;;;11.10;100.00;98462.69;5037685;28;20033;-84
2023/11/04 01:50:23;;;;;;;0.30;0.30;;;;;;;11.22;100.00;98479.69;5019744;28;20041;-84
2023/11/04 01:52:50;;;;;;;0.30;0.30;;;;;;;11.02;100.00;98457.16;5020699;28;20048;-84
2023/11/04 01:55:30;;;;;;;0.30;0.30;;;;;;;10.81;100.00;98437.78;5020164;28;20024;-85
2023/11/04 01:58:00;;;;;;;0.30;0.30;;;;;;;10.94;100.00;98443.69;5018428;28;20030;-83
2023/11/04 02:00:26;;;;;;;0.20;0.20;;;;;;;11.05;100.00;98477.03;5015729;28;20033;-84
2023/11/04 02:02:57;;;;;;;0.30;0.30;;;;;;;10.83;100.00;98415.94;5017061;28;20048;-85
2023/11/04 02:05:34;;;;;;;0.20;0.20;;;;;;;11.30;100.00;98530.53;5018135;28;20030;-85
2023/11/04 02:08:02;;;;;;;0.20;0.20;;;;;;;11.09;100.00;98453.53;5036234;28;20064;-84
2023/11/04 02:10:32;;;;;;;0.30;0.30;;;;;;;11.46;100.00;98514.13;5034744;28;20045;-85
2023/11/04 02:13:00;;;;;;;0.30;0.30;;;;;;;11.14;100.00;98452.31;5016566;28;20026;-84
2023/11/04 02:15:26;;;;;;;0.30;0.30;;;;;;;11.24;100.00;98490.41;5035987;28;20006;-84
2023/11/04 02:18:13;;;;;;;0.20;0.20;;;;;;;11.02;100.00;98454.38;5034983;28;20037;-84
2023/11/04 02:20:51;;;;;;;0.20;0.20;;;;;;;11.18;100.00;98511.50;5018405;28;20037;-85
2023/11/04 02:23:18;;;;;;;0.22;0.22;;;;;;;10.56;100.00;98392.66;5017528;28;20037;-84
2023/11/04 02:25:47;;;;;;;0.20;0.20;;;;;;;10.77;100.00;98470.44;5018195;28;20175;-84
2023/11/04 02:28:30;;;;;;;0.28;0.28;;;;;;;10.84;100.00;98442.56;5018470;28;20097;-84
2023/11/04 02:31:14;;;;;;;0.30;0.30;;;;;;;10.98;100.00;98450.03;5036900;28;20070;-85
2023/11/04 02:33:43;;;;;;;0.30;0.30;;;;;;;10.62;100.00;98419.63;5026822;28;20073;-84
2023/11/04 02:36:43;;;;;;;0.30;0.30;;;;;;;10.84;100.00;98433.41;5022813;28;20025;-85
2023/11/04 02:40:13;;;;;;;0.25;0.25;;;;;;;10.95;100.00;98443.28;5030152;28;20061;-84
2023/11/04 02:50:28;;;;;;;0.30;0.30;;;;;;;11.84;100.00;98530.16;5040918;28;20037;-85
2023/11/04 02:53:16;;;;;;;0.30;0.30;;;;;;;11.39;100.00;98471.59;5155869;23;20148;-84
2023/11/04 02:55:45;;;;;;;0.30;0.30;;;;;;;11.76;100.00;98544.13;5018953;28;20029;-84
2023/11/04 02:58:15;;;;;;;0.30;0.30;;;;;;;11.24;100.00;98488.44;5033881;28;20034;-84
2023/11/04 03:00:42;;;;;;;0.30;0.30;;;;;;;11.23;100.00;98460.97;5018331;28;20057;-84
2023/11/04 03:03:10;;;;;;;0.30;0.30;;;;;;;11.35;100.00;98496.69;5035515;28;20037;-84
2023/11/04 03:05:51;;;;;;;0.20;0.20;;;;;;;11.58;100.00;98500.91;5004419;28;20022;-84
2023/11/04 03:08:24;;;;;;;0.30;0.30;;;;;;;11.82;100.00;98538.13;4988609;28;20081;-84
2023/11/04 03:11:09;;;;;;;0.30;0.30;;;;;;;11.71;100.00;98527.03;5028516;28;20138;-84
2023/11/04 03:13:36;;;;;;;0.20;0.20;;;;;;;11.50;100.00;98503.75;5018109;28;20088;-84
2023/11/04 03:16:13;;;;;;;0.30;0.30;;;;;;;11.26;100.00;98479.66;5035884;28;20038;-84
2023/11/04 03:19:24;;;;;;;0.20;0.20;;;;;;;11.63;100.00;98508.81;5036285;28;20041;-84
2023/11/04 03:21:58;;;;;;;0.30;0.30;;;;;;;11.97;100.00;98540.38;5021563;28;20064;-83
2023/11/04 03:24:26;;;;;;;0.28;0.28;;;;;;;11.72;100.00;98507.16;5031699;28;20042;-84
2023/11/04 03:27:05;;;;;;;0.30;0.30;;;;;;;11.74;100.00;98509.53;5019847;28;20051;-84
2023/11/04 03:30:04;;;;;;;0.20;0.20;;;;;;;11.68;100.00;98502.81;5007178;28;20018;-84
2023/11/04 03:33:15;;;;;;;0.30;0.30;;;;;;;11.44;100.00;98490.66;5006412;28;20018;-84
2023/11/04 03:36:08;;;;;;;0.30;0.30;;;;;;;11.45;100.00;98501.41;5038191;28;20034;-83
2023/11/04 03:38:57;;;;;;;0.22;0.22;;;;;;;11.66;100.00;98521.91;5012358;28;20065;-84
2023/11/04 03:41:59;;;;;;;0.30;0.30;;;;;;;11.56;100.00;98501.31;4998859;28;20022;-84
2023/11/04 03:44:55;;;;;;;0.30;0.30;;;;;;;11.79;100.00;98528.59;5022931;28;20033;-84
2023/11/04 03:48:11;;;;;;;0.20;0.20;;;;;;;11.36;100.00;98467.66;5022440;28;20022;-83
2023/11/04 03:51:15;;;;;;;0.30;0.30;;;;;;;11.86;100.00;98503.47;4915213;29;20048;-83
2023/11/04 03:53:56;;;;;;;0.25;0.25;;;;;;;11.87;100.00;98566.34;4908588;29;20061;-84
2023/11/04 03:56:43;;;;;;;0.30;0.30;;;;;;;11.25;100.00;98511.50;4915385;29;20101;-84
2023/11/04 03:59:19;;;;;;;0.30;0.30;;;;;;;11.54;100.00;98551.84;4924091;29;20039;-83
2023/11/04 04:02:18;;;;;;;0.25;0.25;;;;;;;10.99;100.00;98487.78;5010034;28;20053;-84
2023/11/04 04:04:54;;;;;;;0.30;0.30;;;;;;;10.80;100.00;98469.59;5032967;28;20014;-84
2023/11/04 04:07:33;;;;;;;0.30;0.30;;;;;;;11.37;100.00;98554.75;5033624;28;20014;-83
2023/11/04 04:10:15;;;;;;;0.30;0.30;;;;;;;11.11;100.00;98508.78;5014338;28;20090;-84
2023/11/04 04:12:47;;;;;;;0.20;0.20;;;;;;;11.23;100.00;98531.38;4983666;28;20045;-83
2023/11/04 04:15:16;;;;;;;0.20;0.20;;;;;;;11.45;100.00;98543.19;5016487;28;20026;-84
2023/11/04 04:18:00;;;;;;;0.30;0.30;;;;;;;10.86;100.00;98473.53;5034246;28;20102;-84
2023/11/04 04:20:29;;;;;;;0.30;0.30;;;;;;;11.28;100.00;98493.94;5016010;28;20053;-84
2023/11/04 04:22:55;;;;;;;0.20;0.20;;;;;;;11.18;100.00;98492.03;5015204;28;20048;-84
2023/11/04 04:25:30;;;;;;;0.20;0.20;;;;;;;11.21;100.00;98489.22;5015705;28;20046;-83
2023/11/04 04:28:01;;;;;;;0.30;0.30;;;;;;;11.42;100.00;98507.78;4999556;28;20048;-84
2023/11/04 04:30:27;;;;;;;0.30;0.30;;;;;;;11.33;100.00;98468.47;5016080;28;20057;-84
2023/11/04 04:32:56;;;;;;;0.20;0.20;;;;;;;11.90;100.00;98551.59;5017639;28;20030;-84
2023/11/04 04:35:22;;;;;;;0.22;0.22;;;;;;;11.39;100.00;98472.38;5029377;28;20030;-84
2023/11/04 04:37:54;;;;;;;0.20;0.20;;;;;;;11.23;100.00;98477.69;5035448;28;20108;-83
2023/11/04 04:40:40;;;;;;;0.30;0.30;;;;;;;11.31;100.00;98487.56;5015785;28;20044;-83
2023/11/04 04:43:11;;;;;;;0.30;0.30;;;;;;;11.40;100.00;98496.28;5017536;28;20017;-84
2023/11/04 04:45:42;;;;;;;0.20;0.20;;;;;;;11.78;100.00;98566.00;5018012;28;20042;-83
2023/11/04 04:48:13;;;;;;;0.30;0.30;;;;;;;11.35;100.00;98527.34;5029516;28;20062;-84
2023/11/04 04:50:47;;;;;;;0.20;0.20;;;;;;;11.15;100.00;98523.47;5035340;28;20029;-84
2023/11/04 04:53:15;;;;;;;0.30;0.30;;;;;;;11.72;100.00;98595.53;5017573;28;20049;-84
2023/11/04 04:55:45;;;;;;;0.20;0.20;;;;;;;11.23;100.00;98511.09;5031233;28;20030;-84
2023/11/04 04:58:12;;;;;;;0.30;0.30;;;;;;;11.33;100.00;98526.94;4998607;28;20035;-84
2023/11/04 05:00:42;;;;;;;0.20;0.20;;;;;;;11.17;100.00;98510.72;5014142;28;20049;-83
2023/11/04 05:03:19;;;;;;;0.30;0.30;;;;;;;11.68;100.00;98583.59;5015692;28;20037;-83
2023/11/04 05:05:53;;;;;;;0.30;0.30;;;;;;;11.35;100.00;98518.19;4999150;28;20026;-84
2023/11/04 05:08:26;;;;;;;0.30;0.30;;;;;;;11.08;100.00;98501.25;4978321;28;20107;-83
2023/11/04 05:10:59;;;;;;;0.30;0.30;;;;;;;11.39;100.00;98521.72;5015157;28;20045;-83
2023/11/04 05:13:46;;;;;;;0.20;0.20;;;;;;;11.36;100.00;98540.06;4999675;28;20030;-84
2023/11/04 05:16:23;;;;;;;0.30;0.30;;;;;;;11.46;100.00;98547.53;4997342;28;20042;-83
2023/11/04 05:19:28;;;;;;;0.30;0.30;;;;;;;11.58;100.00;98573.31;5019992;28;20053;-83
2023/11/04 05:22:01;;;;;;;0.30;0.30;;;;;;;11.22;100.00;98509.50;4996417;28;20038;-84
2023/11/04 06:08:15;;;;;;;0.20;0.20;;;;;;;11.55;100.00;98631.41;6102319;23;20341;-82
2023/11/04 06:41:08;;;;;;;0.30;0.30;;;;;;;11.97;100.00;98645.50;5825878;23;20053;-84
2023/11/04 06:43:38;;;;;;;0.20;0.20;;;;;;;11.91;100.00;98642.38;5018480;28;20022;-84
2023/11/04 06:46:17;;;;;;;0.30;0.30;;;;;;;12.40;100.00;98743.56;5001566;28;20015;-83
2023/11/04 06:49:04;;;;;;;0.30;0.30;;;;;;;11.73;100.00;98675.13;4980726;28;20042;-84
2023/11/04 06:51:37;;;;;;;0.30;0.30;;;;;;;11.59;100.00;98692.69;4982150;28;20046;-83
2023/11/04 06:54:24;;;;;;;0.30;0.30;;;;;;;11.41;100.00;98684.44;5088317;23;20070;-84
2023/11/04 07:00:40;;;;;;;0.30;0.30;;;;;;;11.51;100.00;98722.59;5037225;28;20065;-84
2023/11/04 07:03:07;;;;;;;0.30;0.30;;;;;;;12.01;100.00;98766.94;5036238;28;20053;-84
2023/11/04 07:06:14;;;;;;;0.30;0.30;;;;;;;12.01;100.00;98768.94;5023319;28;20010;-83
2023/11/04 07:08:48;;;;;;;0.30;0.30;;;;;;;11.78;100.00;98738.78;5035888;28;20009;-84
2023/11/04 07:11:16;;;;;;;0.30;0.30;;;;;;;11.27;100.00;98667.78;5016188;28;20045;-84
2023/11/04 07:13:44;;;;;;;0.30;0.30;;;;;;;11.81;100.00;98788.09;5018604;28;20037;-84
2023/11/04 07:16:14;;;;;;;0.30;0.30;;;;;;;11.24;100.00;98693.66;5019448;28;20036;-84
2023/11/04 07:18:42;;;;;;;0.30;0.30;;;;;;;11.69;100.00;98761.50;5018172;28;20041;-84
2023/11/04 07:21:30;;;;;;;0.30;0.30;;;;;;;11.39;100.00;98723.00;5022523;28;20018;-84
2023/11/04 07:24:19;;;;;;;0.20;0.20;;;;;;;11.51;100.00;98758.78;5004351;28;20081;-83
2023/11/04 07:26:53;;;;;;;0.20;0.20;;;;;;;12.07;100.00;98823.84;5035519;28;20061;-83
2023/11/04 07:29:28;;;;;;;0.30;0.30;;;;;;;11.66;100.00;98792.94;5020182;28;20105;-82
2023/11/04 07:32:30;;;;;;;0.30;0.30;;;;;;;11.72;100.00;98784.97;5037582;28;20105;-83
2023/11/04 07:35:01;;;;;;;0.30;0.30;;;;;;;12.16;100.00;98856.09;5020117;28;20041;-84
2023/11/04 07:37:38;;;;;;;0.30;0.30;;;;;;;11.62;100.00;98785.81;5037913;28;20026;-83
2023/11/04 07:40:16;;;;;;;0.30;0.30;;;;;;;12.12;100.00;98888.75;5016250;28;20029;-84
2023/11/04 07:42:43;;;;;;;0.30;0.30;;;;;;;12.17;100.00;98854.88;4996449;28;20030;-84
2023/11/04 07:45:46;;;;;;;0.30;0.30;;;;;;;11.90;100.00;98829.50;4996730;28;20031;-85
2023/11/04 07:48:31;;;;;;;0.30;0.30;;;;;;;12.03;100.00;98855.72;4965666;28;20035;-86
2023/11/04 07:51:23;;;;;;;0.30;0.30;;;;;;;11.66;100.00;98789.34;4961048;28;20035;-87
2023/11/04 07:53:53;;;;;;;0.30;0.30;;;;;;;12.07;100.00;98846.16;4968175;29;20046;-87
2023/11/04 07:56:23;;;;;;;0.20;0.20;;;;;;;12.35;100.00;98897.41;4975996;29;20043;-85
2023/11/04 07:58:49;;;;;;;0.20;0.20;;;;;;;11.91;100.00;98842.25;4959834;29;20015;-85
2023/11/04 08:01:26;;;;;;;0.28;0.28;;;;;;;11.91;100.00;98859.75;4960902;28;20057;-87
2023/11/04 08:03:57;;;;;;;0.30;0.30;;;;;;;11.70;100.00;98815.22;4977981;28;20150;-86
2023/11/04 08:06:28;;;;;;;0.30;0.30;;;;;;;11.97;100.00;98840.63;4973351;28;20007;-86
2023/11/04 08:09:08;;;;;;;0.20;0.20;;;;;;;13.29;100.00;98831.38;4957781;29;20114;-83
2023/11/04 08:11:55;;;;;;;0.30;0.30;;;;;;;13.08;100.00;98807.22;4945189;29;20019;-83
2023/11/04 08:14:47;;;;;;;0.30;0.30;;;;;;;12.87;100.00;98864.00;4977240;28;20027;-82
2023/11/04 08:18:12;;;;;;;0.30;0.30;;;;;;;13.17;100.00;98843.03;4950049;28;20110;-85
2023/11/04 09:01:31;;;;;;;0.20;0.20;;;;;;;13.36;100.00;98892.75;5067034;23;20093;-83
2023/11/04 09:04:55;;;;;;;0.20;0.20;;;;;;;13.97;100.00;98892.94;5037547;28;20056;-84
2023/11/04 09:16:14;;;;;;;0.20;0.20;;;;;;;17.30;92.04;98899.81;5010910;28;20129;-87
2023/11/04 09:18:39;;;;;;;0.25;0.25;;;;;;;16.64;89.70;98896.13;4991200;28;20120;-85
2023/11/04 09:51:15;;;;;;;0.20;0.20;;;;;;;17.36;76.48;98922.56;5161560;23;20119;-87
2023/11/04 09:57:02;;;;;;;0.20;0.20;;;;;;;17.85;69.55;98916.97;5010569;28;20053;-88
2023/11/04 09:59:28;;;;;;;0.20;0.20;;;;;;;17.11;75.05;98903.53;5001052;28;20022;-88
2023/11/04 10:01:54;;;;;;;0.20;0.20;;;;;;;17.37;76.12;98921.38;4989591;28;20113;-87
2023/11/04 10:04:19;;;;;;;0.20;0.20;;;;;;;17.08;76.11;98913.63;5011311;28;20089;-88
2023/11/04 10:06:48;;;;;;;0.20;0.20;;;;;;;17.10;78.01;98936.47;5011591;28;20040;-88
2023/11/04 10:09:13;;;;;;;0.20;0.20;;;;;;;16.80;81.04;98933.94;5009980;28;20061;-88
2023/11/04 10:11:39;;;;;;;0.20;0.20;;;;;;;16.35;79.54;98901.59;5010171;28;20504;-87
2023/11/04 10:14:09;;;;;;;0.20;0.20;;;;;;;16.50;77.94;98911.25;5009783;28;20783;-87
2023/11/04 10:16:34;;;;;;;0.20;0.20;;;;;;;16.39;79.15;98909.91;5009896;28;20018;-87
2023/11/04 10:19:00;;;;;;;0.20;0.20;;;;;;;16.32;80.98;98901.66;4993483;28;20723;-87
2023/11/04 10:21:26;;;;;;;0.20;0.20;;;;;;;16.56;75.66;98927.59;4992078;28;20113;-88
2023/11/04 10:23:52;;;;;;;0.20;0.20;;;;;;;16.44;77.64;98929.06;4994111;28;20076;-88
2023/11/04 10:26:17;;;;;;;0.20;0.20;;;;;;;17.27;76.41;98917.59;4994313;28;20029;-88
2023/11/04 10:28:43;;;;;;;0.20;0.20;;;;;;;16.92;77.82;98922.03;4994529;28;20371;-87
2023/11/04 10:31:13;;;;;;;0.20;0.20;;;;;;;16.57;79.29;98906.75;5015590;28;20050;-88
2023/11/04 10:33:42;;;;;;;0.20;0.20;;;;;;;16.49;79.60;98911.69;5015675;28;20146;-88
2023/11/04 10:36:08;;;;;;;0.20;0.20;;;;;;;16.81;76.58;98933.50;5014020;28;20116;-88
2023/11/04 10:38:37;;;;;;;0.20;0.20;;;;;;;17.11;75.97;98926.81;4996851;28;20422;-87
2023/11/04 10:41:06;;;;;;;0.20;0.20;;;;;;;17.26;74.59;98913.19;4996608;28;20026;-87
2023/11/04 10:43:51;;;;;;;0.20;0.20;;;;;;;17.64;72.66;98927.50;4995746;28;20093;-88
2023/11/04 10:46:36;;;;;;;0.20;0.20;;;;;;;18.42;70.64;98918.94;5006830;28;20543;-87
2023/11/04 10:49:17;;;;;;;0.20;0.20;;;;;;;18.98;66.58;98926.19;4997917;28;20030;-85
2023/11/04 10:51:56;;;;;;;0.20;0.20;;;;;;;18.54;67.75;98915.38;5012614;28;20045;-88
2023/11/04 10:54:32;;;;;;;0.20;0.20;;;;;;;18.84;67.42;98897.19;4995366;28;20038;-87
2023/11/04 10:57:39;;;;;;;0.20;0.20;;;;;;;19.01;68.23;98942.16;4996014;28;20029;-88
2023/11/04 11:00:14;;;;;;;0.20;0.20;;;;;;;18.93;67.74;98923.91;4979838;28;20113;-85
2023/11/04 11:02:43;;;;;;;0.20;0.20;;;;;;;18.23;70.69;98931.97;5013543;28;20037;-87
2023/11/04 11:05:11;;;;;;;0.20;0.20;;;;;;;17.90;72.87;98938.94;4996650;28;20064;-87
2023/11/04 11:07:44;;;;;;;0.20;0.20;;;;;;;17.65;74.77;98947.97;4995785;28;20519;-87
2023/11/04 11:10:12;;;;;;;0.20;0.20;;;;;;;17.54;76.47;98942.63;4996213;28;20469;-87
2023/11/04 11:12:45;;;;;;;0.20;0.20;;;;;;;17.62;78.87;98957.28;4995873;28;20022;-86
2023/11/04 11:15:11;;;;;;;0.20;0.20;;;;;;;17.27;78.16;98940.88;4995534;28;20018;-87
2023/11/04 11:17:36;;;;;;;0.20;0.20;;;;;;;17.38;79.32;98940.59;4995984;28;20026;-86
2023/11/04 11:20:02;;;;;;;0.20;0.20;;;;;;;17.41;79.94;98950.16;4995991;28;20052;-87
2023/11/04 11:22:27;;;;;;;0.20;0.20;;;;;;;17.10;79.68;98928.03;5013664;28;20033;-87
2023/11/04 11:24:56;;;;;;;0.20;0.20;;;;;;;17.49;79.39;98957.22;4995290;28;20125;-87
2023/11/04 11:27:22;;;;;;;0.20;0.20;;;;;;;17.37;79.38;98955.91;4995689;28;20022;-87
2023/11/04 11:29:49;;;;;;;0.20;0.20;;;;;;;17.26;82.90;98963.78;4995725;28;20034;-85
2023/11/04 11:32:18;;;;;;;0.20;0.20;;;;;;;17.07;83.84;98964.63;4996538;28;20621;-87
2023/11/04 11:35:04;;;;;;;0.20;0.20;;;;;;;16.71;85.13;98940.13;4996103;28;20072;-87
2023/11/04 11:37:31;;;;;;;0.20;0.20;;;;;;;16.69;88.46;98954.59;4995532;28;20108;-87
2023/11/04 11:39:56;;;;;;;0.20;0.20;;;;;;;16.48;94.13;98949.44;4995513;28;20056;-88
2023/11/04 11:42:29;;;;;;;0.20;0.20;;;;;;;16.43;95.14;98952.75;4995370;28;20065;-88
2023/11/04 11:44:55;;;;;;;0.20;0.20;;;;;;;16.37;97.40;98960.88;5012701;28;20038;-87
2023/11/04 11:47:20;;;;;;;0.20;0.20;;;;;;;16.37;99.91;98971.31;5012667;28;20121;-88
2023/11/04 11:49:46;;;;;;;0.20;0.20;;;;;;;16.22;100.00;98968.00;5013113;28;20099;-89
2023/11/04 11:52:13;;;;;;;0.20;0.20;;;;;;;16.17;99.88;98974.09;4996874;28;20042;-88
2023/11/04 11:54:39;;;;;;;0.20;0.20;;;;;;;16.08;100.00;98934.59;4995459;28;20038;-89
2023/11/04 11:57:05;;;;;;;0.20;0.20;;;;;;;16.26;100.00;98945.47;4995721;28;20500;-88
2023/11/04 11:59:34;;;;;;;0.20;0.20;;;;;;;16.11;100.00;98937.31;4994815;28;20386;-87
2023/11/04 12:04:44;;;;;;;0.20;0.20;;;;;;;16.93;100.00;98957.31;5012405;28;20553;-87
2023/11/04 12:07:10;;;;;;;0.20;0.20;;;;;;;16.73;99.91;98948.94;4994568;28;20030;-87
2023/11/04 12:09:36;;;;;;;0.20;0.20;;;;;;;16.29;100.00;98922.16;4994592;28;20026;-88
2023/11/04 12:12:01;;;;;;;0.20;0.20;;;;;;;16.23;100.00;98944.31;4995571;28;20092;-88
2023/11/04 12:14:27;;;;;;;0.20;0.20;;;;;;;16.67;100.00;98959.88;4994975;28;20040;-88
2023/11/04 12:16:53;;;;;;;0.20;0.20;;;;;;;16.99;100.00;98941.50;4996505;28;20029;-89
2023/11/04 12:19:19;;;;;;;0.20;0.20;;;;;;;16.89;98.95;98951.78;4997834;28;20273;-88
2023/11/04 12:21:45;;;;;;;0.20;0.20;;;;;;;16.98;98.75;98921.06;4995106;28;20660;-87
2023/11/04 12:24:11;;;;;;;0.20;0.20;;;;;;;17.48;97.75;98914.25;4994406;28;20064;-88
2023/11/04 12:26:39;;;;;;;0.20;0.20;;;;;;;17.60;92.26;98938.03;4993842;28;20418;-87
2023/11/04 12:29:04;;;;;;;0.20;0.20;;;;;;;17.56;90.16;98954.22;4994027;28;20393;-88
2023/11/04 12:31:30;;;;;;;0.20;0.20;;;;;;;17.15;92.78;98935.13;4994363;28;20033;-88
2023/11/04 12:33:56;;;;;;;0.20;0.20;;;;;;;17.13;93.62;98949.63;4994062;28;20409;-87
2023/11/04 12:36:22;;;;;;;0.20;0.20;;;;;;;17.02;94.01;98958.31;5011919;28;20440;-87
2023/11/04 12:38:47;;;;;;;0.20;0.20;;;;;;;17.11;95.04;98963.34;4993868;28;20026;-87
2023/11/04 12:41:14;;;;;;;0.20;0.20;;;;;;;17.17;94.65;98941.91;4994018;28;20033;-88
2023/11/04 12:43:41;;;;;;;0.20;0.20;;;;;;;17.23;94.09;98940.16;4993365;28;20036;-88
2023/11/04 12:46:09;;;;;;;0.20;0.20;;;;;;;17.27;94.47;98926.03;4993730;28;20049;-88
2023/11/04 12:48:38;;;;;;;0.20;0.20;;;;;;;17.29;91.24;98946.81;4994158;28;20026;-88
2023/11/04 12:51:04;;;;;;;0.20;0.20;;;;;;;17.37;91.09;98963.53;4993489;28;20509;-88
2023/11/04 12:53:34;;;;;;;0.20;0.20;;;;;;;17.31;88.29;98943.59;4996063;28;20037;-88
2023/11/04 12:55:59;;;;;;;0.20;0.20;;;;;;;17.43;88.86;98928.03;4993757;28;20021;-87
2023/11/04 12:58:25;;;;;;;0.20;0.20;;;;;;;17.73;87.87;98941.75;4993739;28;20480;-87
2023/11/04 13:00:50;;;;;;;0.20;0.20;;;;;;;17.57;88.16;98969.84;4993867;28;20112;-85
2023/11/04 13:03:15;;;;;;;0.20;0.20;;;;;;;17.52;89.02;98959.94;4993729;28;20030;-87
2023/11/04 13:05:41;;;;;;;0.20;0.20;;;;;;;17.56;89.80;98959.84;4993488;28;20500;-85
2023/11/04 13:08:06;;;;;;;0.20;0.20;;;;;;;17.20;90.44;98921.34;4993688;28;20465;-85
2023/11/04 13:10:33;;;;;;;0.20;0.20;;;;;;;17.09;88.58;98934.84;4993198;28;20529;-86
2023/11/04 13:12:59;;;;;;;0.20;0.20;;;;;;;17.16;87.45;98957.19;4993709;28;20025;-85
2023/11/04 13:15:24;;;;;;;0.20;0.20;;;;;;;17.10;85.84;98938.44;4993525;28;20036;-86
2023/11/04 13:17:50;;;;;;;0.20;0.20;;;;;;;17.36;87.32;98981.63;4993473;28;20080;-86
2023/11/04 13:20:17;;;;;;;0.20;0.20;;;;;;;16.88;86.68;98961.41;4993577;28;20410;-86
2023/11/04 13:22:42;;;;;;;0.20;0.20;;;;;;;17.07;86.81;98985.09;4992726;28;20096;-87
2023/11/04 13:25:08;;;;;;;0.20;0.20;;;;;;;16.96;87.29;98990.94;4993474;28;20477;-87
2023/11/04 13:27:33;;;;;;;0.20;0.20;;;;;;;17.17;86.91;98975.63;4993451;28;20052;-86
2023/11/04 13:29:58;;;;;;;0.20;0.20;;;;;;;17.10;86.66;98960.94;4993443;28;20092;-87
2023/11/04 13:32:24;;;;;;;0.20;0.20;;;;;;;17.28;83.58;98945.25;4993632;28;20125;-89
2023/11/04 13:34:50;;;;;;;0.20;0.20;;;;;;;17.43;83.37;98968.19;4993519;28;20030;-87
2023/11/04 13:37:16;;;;;;;0.20;0.20;;;;;;;17.48;80.41;98998.59;4993899;28;20089;-86
2023/11/04 13:39:42;;;;;;;0.20;0.20;;;;;;;17.60;80.13;99004.75;4997402;28;20036;-86
2023/11/04 13:42:07;;;;;;;0.20;0.20;;;;;;;17.11;76.27;98945.69;5016741;28;20045;-86
2023/11/04 13:44:33;;;;;;;0.20;0.20;;;;;;;17.20;76.94;98977.56;5002523;28;20076;-87
2023/11/04 13:46:58;;;;;;;0.20;0.20;;;;;;;17.58;77.56;99008.00;4992703;28;20030;-87
2023/11/04 13:49:24;;;;;;;0.20;0.20;;;;;;;17.61;78.07;99012.75;4995558;28;20038;-87
2023/11/04 13:51:49;;;;;;;0.20;0.20;;;;;;;17.67;76.65;99013.00;4993989;28;20429;-87
2023/11/04 13:54:14;;;;;;;0.20;0.20;;;;;;;17.60;77.31;99019.59;5014939;28;20034;-87
2023/11/04 13:56:40;;;;;;;0.20;0.20;;;;;;;17.53;78.36;99026.19;5014992;28;20033;-88
2023/11/04 13:59:08;;;;;;;0.20;0.20;;;;;;;17.58;77.03;99022.06;5014711;28;20447;-87
2023/11/04 14:01:34;;;;;;;0.20;0.20;;;;;;;17.20;78.95;98988.78;4997748;28;20121;-87
2023/11/04 14:04:00;;;;;;;0.20;0.20;;;;;;;17.57;80.38;99014.84;4996817;28;20025;-86
2023/11/04 14:06:26;;;;;;;0.20;0.20;;;;;;;17.63;79.82;98999.06;4996132;28;20073;-86
2023/11/04 14:08:51;;;;;;;0.20;0.20;;;;;;;17.38;80.60;99008.09;4994715;28;20137;-86
2023/11/04 14:11:16;;;;;;;0.20;0.20;;;;;;;17.60;81.05;99033.66;4994978;28;20041;-87
2023/11/04 14:13:42;;;;;;;0.20;0.20;;;;;;;17.61;81.62;99012.75;5012224;28;20029;-86
2023/11/04 14:16:07;;;;;;;0.20;0.20;;;;;;;17.84;82.22;99022.25;4994565;28;20509;-86
2023/11/04 14:18:33;;;;;;;0.20;0.20;;;;;;;17.97;82.04;99023.94;5012737;28;20083;-86
2023/11/04 14:20:58;;;;;;;0.20;0.20;;;;;;;17.88;81.68;99031.41;5012736;28;20089;-86
2023/11/04 14:23:24;;;;;;;0.20;0.20;;;;;;;17.85;80.98;99007.78;4996462;28;20050;-87
2023/11/04 14:25:49;;;;;;;0.25;0.25;;;;;;;18.00;81.78;99011.81;4996426;28;20433;-86
2023/11/04 14:28:15;;;;;;;0.20;0.20;;;;;;;18.02;80.17;99022.63;5013963;28;20026;-87
2023/11/04 14:30:41;;;;;;;0.20;0.20;;;;;;;17.97;80.74;99054.09;5013919;28;20456;-86
2023/11/04 14:33:07;;;;;;;0.20;0.20;;;;;;;17.97;79.40;99057.72;4996191;28;20036;-87
2023/11/04 14:35:33;;;;;;;0.20;0.20;;;;;;;17.86;75.02;99036.69;5014032;28;20390;-87
2023/11/04 14:37:58;;;;;;;0.20;0.20;;;;;;;17.88;72.01;99037.84;5014324;28;20517;-87
2023/11/04 14:40:24;;;;;;;0.20;0.20;;;;;;;17.80;70.67;99039.25;4996608;28;20619;-87
2023/11/04 14:42:49;;;;;;;0.20;0.20;;;;;;;17.63;70.67;99030.00;4996674;28;20361;-86
2023/11/04 14:45:15;;;;;;;0.20;0.20;;;;;;;17.57;68.35;99040.16;4997082;28;20033;-87
2023/11/04 14:47:41;;;;;;;0.20;0.20;;;;;;;17.46;68.18;99034.78;4997293;28;20026;-87
2023/11/04 14:50:07;;;;;;;0.20;0.20;;;;;;;17.33;68.97;99036.72;4995588;28;20026;-87
2023/11/04 14:52:33;;;;;;;0.20;0.20;;;;;;;17.43;68.26;99051.75;4995457;28;20034;-87
2023/11/04 14:54:59;;;;;;;0.20;0.20;;;;;;;17.39;69.31;99039.78;4996115;28;20049;-87
2023/11/04 14:57:25;;;;;;;0.20;0.20;;;;;;;17.59;70.32;99060.22;4995840;28;20022;-86
2023/11/04 14:59:54;;;;;;;0.20;0.20;;;;;;;17.45;71.55;99058.50;4995255;28;20542;-86
2023/11/04 15:02:19;;;;;;;0.20;0.20;;;;;;;17.07;72.70;99016.00;4995276;28;20053;-86
2023/11/04 15:04:45;;;;;;;0.20;0.20;;;;;;;17.22;73.67;99051.00;4997684;28;20490;-86
2023/11/04 15:07:11;;;;;;;0.20;0.20;;;;;;;17.42;72.19;99072.69;4995268;28;20026;-88
2023/11/04 15:09:39;;;;;;;0.20;0.20;;;;;;;17.27;72.43;99070.16;4995779;28;20029;-87
2023/11/04 15:12:08;;;;;;;0.20;0.20;;;;;;;17.14;73.90;99085.31;4995771;28;20448;-87
2023/11/04 15:14:33;;;;;;;0.20;0.20;;;;;;;17.19;75.02;99070.75;5013013;28;20022;-87
2023/11/04 15:16:58;;;;;;;0.20;0.20;;;;;;;17.12;77.39;99077.31;4995516;28;20562;-86
2023/11/04 15:19:24;;;;;;;0.20;0.20;;;;;;;16.85;80.45;99060.63;4995684;28;20025;-86
2023/11/04 15:21:50;;;;;;;0.20;0.20;;;;;;;16.62;80.79;99041.81;4995280;28;20029;-87
2023/11/04 15:24:15;;;;;;;0.20;0.20;;;;;;;16.79;82.79;99075.63;5013065;28;20049;-87
2023/11/04 15:26:41;;;;;;;0.20;0.20;;;;;;;16.73;83.56;99072.53;4995409;28;20026;-87
2023/11/04 15:57:04;;;;;;;0.20;0.20;;;;;;;15.74;88.88;99100.28;5143645;23;20414;-84
2023/11/04 16:05:37;;;;;;;0.20;0.20;;;;;;;15.69;84.79;99091.13;5056258;23;20541;-83
2023/11/04 16:08:04;;;;;;;0.20;0.20;;;;;;;15.50;85.50;99063.75;5013892;28;20025;-87
2023/11/04 16:10:29;;;;;;;0.20;0.20;;;;;;;15.61;85.11;99089.63;4997214;28;20422;-86
2023/11/04 16:13:23;;;;;;;0.20;0.20;;;;;;;15.75;84.38;99093.44;4980115;28;20026;-84
2023/11/04 16:22:34;;;;;;;0.20;0.20;;;;;;;15.43;89.22;99083.47;5016622;28;20065;-87
2023/11/04 16:24:59;;;;;;;0.20;0.20;;;;;;;15.38;89.24;99086.75;4995138;28;20030;-88